Terminal Aerodrome Forecast
Issued by NWS

Home | Current Version | Previous Version | Text Only | Print | Product List | Glossary On
Versions: 1 2 3 4 5 6 7 8 9 10 11 12 13 14 15 16 17 18
000
FTUS46 KLOX 222336
TAFBUR
TAF
KBUR 222336Z 2300/2324 19012KT P6SM BKN040
     FM230300 16006KT P6SM BKN040
     FM231000 16006KT P6SM BKN025
     FM231900 17012KT P6SM BKN035=

USA.gov is the U.S. government's official web portal to all federal, state and local government web resources and services.